Terminal Aerodrome Forecast
Issued by NWS Atlanta, GA

Home | Current Version | Previous Version | Text Only | Print | Product List | Glossary On
Versions: 1 2 3 4 5 6 7 8 9 10 11 12 13 14 15 16 17 18 19 20 21 22 23 24 25 26 27 28 29 30 31 32
000
FTUS42 KFFC 261012 AAA
TAFAHN
TAF AMD
KAHN 261012Z 2610/2706 17003KT P6SM SCT070 SCT250
      TEMPO 2610/2613 4SM BR BKN010
     FM261400 14006KT P6SM FEW035
     FM261800 16007KT P6SM VCSH SCT045 PROB30 2623/2703 6SM -TSRA
      OVC035CB
     FM270400 21002KT 6SM BR VCSH BKN050 BKN100=

USA.gov is the U.S. government's official web portal to all federal, state and local government web resources and services.